createdAt,value
2023-02-12T00:02:03.751Z,88.92
2023-02-12T00:05:06.554Z,88.97
2023-02-12T00:08:11.206Z,89.17
2023-02-12T00:11:20.318Z,89.31
2023-02-12T00:14:22.530Z,89.20
2023-02-12T00:17:25.138Z,88.92
2023-02-12T00:20:27.387Z,89.15
2023-02-12T00:23:30.192Z,89.75
2023-02-12T00:26:32.348Z,89.97
2023-02-12T00:29:34.784Z,90.15
2023-02-12T00:32:37.343Z,90.58
2023-02-12T00:35:39.813Z,90.67
2023-02-12T00:38:42.559Z,90.49
2023-02-12T00:41:45.667Z,90.79
2023-02-12T00:44:47.901Z,91.26
2023-02-12T00:47:50.395Z,91.64
2023-02-12T00:50:52.657Z,91.73
2023-02-12T00:53:55.252Z,92.23
2023-02-12T00:56:57.918Z,92.98
2023-02-12T01:00:04.408Z,92.60
2023-02-12T01:03:06.720Z,92.49
2023-02-12T01:06:09.297Z,92.39
2023-02-12T01:09:12.062Z,92.50
2023-02-12T01:12:14.785Z,92.92
2023-02-12T01:15:18.005Z,92.86
2023-02-12T01:18:20.503Z,92.18
2023-02-12T01:21:29.027Z,91.78
2023-02-12T01:24:31.538Z,91.94
2023-02-12T01:27:34.047Z,92.34
2023-02-12T01:30:36.603Z,93.05
2023-02-12T01:33:39.488Z,93.89
2023-02-12T01:36:42.069Z,93.81
2023-02-12T01:39:44.445Z,92.94
2023-02-12T01:42:47.144Z,92.82
2023-02-12T01:45:54.096Z,93.05
2023-02-12T01:48:56.822Z,93.22
2023-02-12T01:52:15.456Z,93.01
2023-02-12T01:55:19.454Z,92.64
2023-02-12T01:58:24.100Z,93.20
2023-02-12T02:01:30.861Z,94.29
2023-02-12T02:04:41.691Z,94.68
2023-02-12T02:07:46.818Z,94.42
2023-02-12T02:10:49.506Z,94.81
2023-02-12T02:14:10.961Z,95.12
2023-02-12T02:17:19.278Z,95.26
2023-02-12T02:20:50.962Z,95.89
2023-02-12T02:24:15.209Z,95.47
2023-02-12T02:27:27.846Z,95.60
2023-02-12T02:30:55.649Z,95.37
2023-02-12T02:34:04.259Z,96.06
2023-02-12T02:37:12.921Z,96.41
2023-02-12T02:40:20.346Z,96.93
2023-02-12T02:43:29.216Z,97.10
2023-02-12T02:46:48.469Z,98.91
2023-02-12T02:49:59.457Z,98.96
2023-02-12T02:53:12.034Z,98.52
2023-02-12T02:56:20.185Z,98.18
2023-02-12T02:59:29.360Z,98.45
2023-02-12T03:02:36.139Z,97.91
2023-02-12T03:05:43.560Z,98.49
2023-02-12T03:09:00.841Z,98.15
2023-02-12T03:12:21.039Z,98.99
2023-02-12T03:15:46.560Z,99.10
2023-02-12T03:19:14.154Z,99.24
2023-02-12T03:22:23.237Z,99.21
2023-02-12T03:25:47.033Z,99.16
2023-02-12T03:28:49.452Z,98.76
2023-02-12T03:32:05.619Z,98.74
2023-02-12T03:35:08.235Z,98.29
2023-02-12T03:38:38.984Z,98.45
2023-02-12T03:42:02.313Z,98.26
2023-02-12T03:45:24.908Z,97.98
2023-02-12T03:48:33.707Z,97.40
2023-02-12T03:51:44.925Z,97.45
2023-02-12T03:54:47.885Z,97.29
2023-02-12T03:57:58.880Z,97.36
2023-02-12T04:01:03.275Z,97.72
2023-02-12T04:04:07.994Z,98.13
2023-02-12T04:07:10.845Z,98.48
2023-02-12T04:10:13.776Z,98.42
2023-02-12T04:13:26.312Z,98.80
2023-02-12T04:16:36.977Z,98.67
2023-02-12T04:19:51.059Z,98.53
2023-02-12T04:23:03.042Z,98.59
2023-02-12T04:26:18.353Z,98.58
2023-02-12T04:30:02.924Z,98.03
2023-02-12T04:33:08.180Z,98.29
2023-02-12T04:36:25.039Z,97.99
2023-02-12T04:39:30.095Z,97.65
2023-02-12T04:42:41.825Z,97.59
2023-02-12T04:45:44.158Z,96.91
2023-02-12T04:48:53.918Z,96.75
2023-02-12T04:51:56.223Z,97.24
2023-02-12T04:54:58.746Z,97.40
2023-02-12T04:58:01.298Z,97.54
2023-02-12T05:01:03.881Z,98.83
2023-02-12T05:04:07.380Z,99.07
2023-02-12T05:07:11.793Z,98.95
2023-02-12T05:10:14.110Z,98.73
2023-02-12T05:13:16.644Z,98.31
2023-02-12T05:16:20.304Z,98.76
2023-02-12T05:19:22.887Z,98.87
2023-02-12T05:22:25.151Z,98.67
2023-02-12T05:25:27.678Z,99.09
2023-02-12T05:28:30.943Z,99.85
2023-02-12T05:31:33.585Z,99.83
2023-02-12T05:34:36.602Z,100.00
2023-02-12T05:37:39.236Z,100.00
2023-02-12T05:40:43.141Z,100.00
2023-02-12T05:43:49.481Z,100.00
2023-02-12T05:46:51.922Z,100.00
2023-02-12T05:49:54.652Z,100.00
2023-02-12T05:52:56.876Z,100.00
2023-02-12T05:56:09.494Z,100.00
2023-02-12T05:59:18.016Z,100.00
2023-02-12T06:02:20.562Z,100.00
2023-02-12T06:05:23.044Z,100.00
2023-02-12T06:08:25.199Z,100.00
2023-02-12T06:11:28.077Z,100.00
2023-02-12T06:14:32.032Z,100.00
2023-02-12T06:17:35.408Z,100.00
2023-02-12T06:20:39.995Z,100.00
2023-02-12T06:23:42.815Z,100.00
2023-02-12T06:26:46.092Z,100.00
2023-02-12T06:29:48.510Z,100.00
2023-02-12T06:32:51.041Z,100.00
2023-02-12T06:35:53.981Z,100.00
2023-02-12T06:38:56.619Z,99.86
2023-02-12T06:41:59.107Z,99.70
2023-02-12T06:45:01.392Z,99.84
2023-02-12T06:48:04.080Z,95.46
2023-02-12T06:51:12.472Z,90.45
2023-02-12T06:54:16.704Z,89.52
2023-02-12T06:57:18.925Z,90.67
2023-02-12T07:00:21.898Z,91.94
2023-02-12T07:03:24.128Z,92.74
2023-02-12T07:06:28.017Z,93.64
2023-02-12T07:09:30.304Z,94.00
2023-02-12T07:12:33.767Z,94.68
2023-02-12T07:15:39.516Z,94.54
2023-02-12T07:18:43.769Z,94.42
2023-02-12T07:21:46.014Z,94.19
2023-02-12T07:24:48.685Z,93.97
2023-02-12T07:27:50.977Z,92.80
2023-02-12T07:30:54.379Z,91.81
2023-02-12T07:33:58.553Z,91.86
2023-02-12T07:37:01.012Z,91.71
2023-02-12T07:40:03.608Z,91.62
2023-02-12T07:43:06.309Z,90.82
2023-02-12T07:46:17.237Z,90.07
2023-02-12T07:49:22.363Z,89.25
2023-02-12T07:52:24.562Z,89.65
2023-02-12T07:55:27.028Z,89.14
2023-02-12T07:58:29.230Z,89.00
2023-02-12T08:01:34.204Z,89.11
2023-02-12T08:04:36.729Z,88.53
2023-02-12T08:07:39.043Z,88.23
2023-02-12T08:10:41.634Z,88.34
2023-02-12T08:13:44.542Z,87.79
2023-02-12T08:16:49.337Z,86.55
2023-02-12T08:19:51.582Z,84.87
2023-02-12T08:22:54.095Z,84.79
2023-02-12T08:26:15.298Z,84.13
2023-02-12T08:29:21.392Z,83.82
2023-02-12T08:32:23.575Z,85.41
2023-02-12T08:35:26.132Z,85.01
2023-02-12T08:38:28.544Z,85.50
2023-02-12T08:41:31.504Z,83.93
2023-02-12T08:44:33.832Z,83.84
2023-02-12T08:47:36.390Z,84.02
2023-02-12T08:50:39.028Z,84.38
2023-02-12T08:53:43.446Z,84.13
2023-02-12T08:56:45.755Z,84.02
2023-02-12T08:59:49.131Z,82.90
2023-02-12T09:02:51.463Z,82.46
2023-02-12T09:05:54.841Z,81.96
2023-02-12T09:08:57.209Z,82.46
2023-02-12T09:11:59.758Z,81.89
2023-02-12T09:15:01.994Z,81.08
2023-02-12T09:18:04.992Z,79.71
2023-02-12T09:21:10.047Z,79.53
2023-02-12T09:24:12.725Z,80.04
2023-02-12T09:27:14.954Z,79.01
2023-02-12T09:30:17.872Z,78.24
2023-02-12T09:33:20.229Z,77.28
2023-02-12T09:36:22.758Z,76.99
2023-02-12T09:39:25.931Z,76.14
2023-02-12T09:42:41.845Z,74.00
2023-02-12T09:46:04.630Z,73.64
2023-02-12T09:49:39.497Z,72.32
2023-02-12T09:52:41.924Z,67.95
2023-02-12T09:55:46.078Z,64.75
2023-02-12T09:58:58.988Z,64.63
2023-02-12T10:02:01.869Z,60.15
2023-02-12T10:05:06.614Z,57.25
2023-02-12T10:08:39.637Z,52.32
2023-02-12T10:12:12.992Z,48.66
2023-02-12T10:15:33.039Z,45.96
2023-02-12T10:19:02.800Z,43.65
2023-02-12T10:22:13.795Z,41.61
2023-02-12T10:25:41.107Z,40.12
2023-02-12T10:28:44.289Z,39.45
2023-02-12T10:32:16.114Z,39.44
2023-02-12T10:35:20.338Z,37.47
2023-02-12T10:38:29.025Z,38.66
2023-02-12T10:41:36.811Z,37.37
2023-02-12T10:44:39.404Z,36.93
2023-02-12T10:47:41.711Z,36.71
2023-02-12T10:51:08.876Z,38.41
2023-02-12T10:54:37.949Z,35.98
2023-02-12T10:57:40.594Z,34.55
2023-02-12T11:00:42.964Z,36.44
2023-02-12T11:03:45.638Z,37.36
2023-02-12T11:07:08.903Z,37.34
2023-02-12T11:10:22.469Z,37.01
2023-02-12T11:13:28.519Z,37.09
2023-02-12T11:16:34.725Z,35.75
2023-02-12T11:19:37.034Z,32.62
2023-02-12T11:22:53.788Z,35.28
2023-02-12T11:26:02.929Z,35.47
2023-02-12T11:29:21.295Z,36.38
2023-02-12T11:32:23.436Z,36.61
2023-02-12T11:35:33.802Z,35.27
2023-02-12T11:38:39.026Z,37.30
2023-02-12T11:41:42.905Z,40.04
2023-02-12T11:44:54.217Z,40.86
2023-02-12T11:47:57.319Z,41.29
2023-02-12T11:51:03.825Z,42.77
2023-02-12T11:54:06.582Z,40.22
2023-02-12T11:57:36.723Z,41.28
2023-02-12T12:01:02.793Z,41.08
2023-02-12T12:04:08.519Z,43.37
2023-02-12T12:07:22.620Z,45.08
2023-02-12T12:10:36.548Z,45.98
2023-02-12T12:13:48.555Z,46.52
2023-02-12T12:17:13.391Z,47.07
2023-02-12T12:20:25.061Z,48.88
2023-02-12T12:23:35.742Z,49.50
2023-02-12T12:26:40.952Z,49.95
2023-02-12T12:30:00.925Z,50.12
2023-02-12T12:33:09.072Z,50.66
2023-02-12T12:36:14.303Z,51.57
2023-02-12T12:39:25.473Z,52.19
2023-02-12T12:42:30.921Z,52.17
2023-02-12T12:46:08.050Z,52.43
2023-02-12T12:49:24.736Z,52.86
2023-02-12T12:52:38.709Z,52.60
2023-02-12T12:56:14.987Z,52.87
2023-02-12T12:59:30.112Z,53.62
2023-02-12T13:02:51.335Z,52.42
2023-02-12T13:06:29.022Z,51.96
2023-02-12T13:09:49.637Z,52.47
2023-02-12T13:12:57.749Z,53.63
2023-02-12T13:16:16.403Z,55.14
2023-02-12T13:19:31.503Z,57.06
2023-02-12T13:22:48.483Z,57.57
2023-02-12T13:26:13.992Z,58.03
2023-02-12T13:29:16.380Z,57.51
2023-02-12T13:32:30.797Z,57.45
2023-02-12T13:35:36.773Z,58.36
2023-02-12T13:38:44.524Z,58.56
2023-02-12T13:42:00.727Z,59.43
2023-02-12T13:45:19.645Z,59.79
2023-02-12T13:48:34.490Z,60.09
2023-02-12T13:51:45.002Z,59.34
2023-02-12T13:55:19.623Z,59.58
2023-02-12T13:58:40.185Z,59.40
2023-02-12T14:01:47.504Z,59.62
2023-02-12T14:04:53.356Z,60.40
2023-02-12T14:07:58.977Z,60.26
2023-02-12T14:11:08.575Z,60.91
2023-02-12T14:14:10.952Z,60.91
2023-02-12T14:17:28.867Z,61.29
2023-02-12T14:20:40.352Z,60.58
2023-02-12T14:23:46.443Z,59.80
2023-02-12T14:26:48.910Z,60.27
2023-02-12T14:30:09.997Z,60.92
2023-02-12T14:33:26.994Z,62.22
2023-02-12T14:36:32.462Z,61.93
2023-02-12T14:39:34.769Z,62.45
2023-02-12T14:42:37.291Z,62.78
2023-02-12T14:45:39.558Z,62.71
2023-02-12T14:49:05.905Z,62.84
2023-02-12T14:52:11.773Z,63.59
2023-02-12T14:55:35.284Z,64.38
2023-02-12T14:58:37.917Z,63.64
2023-02-12T15:01:42.519Z,63.61
2023-02-12T15:04:45.748Z,66.22
2023-02-12T15:08:12.013Z,64.87
2023-02-12T15:11:21.597Z,65.14
2023-02-12T15:14:28.314Z,65.31
2023-02-12T15:17:39.391Z,65.12
2023-02-12T15:20:50.644Z,66.11
2023-02-12T15:24:11.755Z,64.44
2023-02-12T15:27:15.865Z,65.06
2023-02-12T15:30:26.381Z,66.96
2023-02-12T15:33:33.371Z,66.66
2023-02-12T15:36:36.063Z,67.98
2023-02-12T15:39:44.380Z,67.32
2023-02-12T15:42:54.326Z,69.10
2023-02-12T15:45:58.047Z,70.19
2023-02-12T15:49:00.353Z,70.32
2023-02-12T15:52:22.036Z,71.58
2023-02-12T15:55:27.986Z,72.96
2023-02-12T15:58:36.867Z,73.36
2023-02-12T16:01:40.744Z,74.02
2023-02-12T16:04:44.853Z,75.12
2023-02-12T16:07:47.080Z,75.21
2023-02-12T16:10:53.138Z,76.03
2023-02-12T16:14:01.602Z,76.28
2023-02-12T16:17:04.325Z,76.75
2023-02-12T16:20:24.752Z,77.47
2023-02-12T16:23:27.419Z,79.03
2023-02-12T16:26:29.815Z,79.55
2023-02-12T16:29:35.926Z,80.87
2023-02-12T16:32:40.568Z,81.34
2023-02-12T16:35:43.107Z,83.90
2023-02-12T16:38:49.647Z,82.77
2023-02-12T16:41:56.083Z,83.60
2023-02-12T16:44:58.382Z,83.46
2023-02-12T16:48:08.767Z,84.30
2023-02-12T16:51:24.917Z,85.68
2023-02-12T16:54:32.183Z,86.52
2023-02-12T16:57:34.396Z,86.52
2023-02-12T17:00:36.944Z,87.83
2023-02-12T17:03:39.913Z,88.11
2023-02-12T17:06:43.530Z,87.43
2023-02-12T17:09:45.838Z,87.98
2023-02-12T17:12:51.487Z,87.12
2023-02-12T17:16:01.502Z,87.92
2023-02-12T17:19:04.158Z,88.40
2023-02-12T17:22:08.926Z,88.81
2023-02-12T17:25:13.528Z,89.40
2023-02-12T17:28:15.942Z,89.59
2023-02-12T17:31:20.684Z,89.98
2023-02-12T17:34:23.712Z,90.01
2023-02-12T17:37:26.267Z,90.24
2023-02-12T17:40:28.506Z,91.42
2023-02-12T17:43:31.200Z,91.24
2023-02-12T17:46:33.902Z,91.23
2023-02-12T17:49:38.635Z,91.44
2023-02-12T17:52:41.008Z,91.57
2023-02-12T17:55:43.550Z,93.12
2023-02-12T17:58:46.587Z,93.42
2023-02-12T18:01:49.045Z,93.59
2023-02-12T18:04:51.914Z,94.95
2023-02-12T18:07:54.423Z,96.20
2023-02-12T18:10:57.250Z,96.44
2023-02-12T18:14:00.269Z,96.87
2023-02-12T18:17:03.067Z,97.97
2023-02-12T18:20:06.419Z,98.34
2023-02-12T18:23:10.152Z,98.46
2023-02-12T18:26:15.855Z,98.54
2023-02-12T18:29:18.365Z,99.41
2023-02-12T18:32:20.519Z,99.53
2023-02-12T18:35:23.814Z,100.00
2023-02-12T18:38:26.108Z,100.00
2023-02-12T18:41:31.446Z,100.00
2023-02-12T18:44:33.685Z,99.95
2023-02-12T18:47:36.411Z,99.86
2023-02-12T18:50:38.789Z,100.00
2023-02-12T18:53:41.882Z,100.00
2023-02-12T18:56:46.785Z,100.00
2023-02-12T18:59:50.752Z,100.00
2023-02-12T19:02:52.935Z,100.00
2023-02-12T19:06:03.794Z,100.00
2023-02-12T19:09:06.691Z,100.00
2023-02-12T19:12:09.192Z,100.00
2023-02-12T19:15:11.781Z,100.00
2023-02-12T19:18:16.285Z,100.00
2023-02-12T19:21:18.938Z,100.00
2023-02-12T19:24:21.768Z,100.00
2023-02-12T19:27:24.029Z,100.00
2023-02-12T19:30:26.551Z,100.00
2023-02-12T19:33:28.740Z,100.00
2023-02-12T19:36:33.090Z,100.00
2023-02-12T19:39:35.314Z,100.00
2023-02-12T19:42:37.783Z,100.00
2023-02-12T19:45:39.984Z,100.00
2023-02-12T19:48:43.775Z,100.00
2023-02-12T19:51:46.907Z,100.00
2023-02-12T19:54:49.444Z,100.00
2023-02-12T19:57:51.718Z,100.00
2023-02-12T20:00:54.548Z,100.00
2023-02-12T20:03:58.220Z,100.00
2023-02-12T20:07:00.476Z,100.00
2023-02-12T20:10:03.208Z,100.00
2023-02-12T20:13:05.625Z,100.00
2023-02-12T20:16:11.583Z,100.00
2023-02-12T20:19:27.430Z,100.00
2023-02-12T20:22:29.981Z,100.00
2023-02-12T20:25:32.222Z,100.00
2023-02-12T20:28:36.981Z,100.00
2023-02-12T20:31:39.393Z,100.00
2023-02-12T20:34:50.523Z,100.00
2023-02-12T20:37:53.226Z,100.00
2023-02-12T20:40:56.064Z,100.00
2023-02-12T20:44:00.843Z,100.00
2023-02-12T20:47:03.583Z,100.00
2023-02-12T20:50:06.572Z,100.00
2023-02-12T20:53:09.277Z,100.00
2023-02-12T20:56:15.228Z,100.00
2023-02-12T20:59:18.832Z,100.00
2023-02-12T21:02:21.109Z,100.00
2023-02-12T21:05:23.672Z,100.00
2023-02-12T21:08:25.972Z,100.00
2023-02-12T21:11:29.704Z,100.00
2023-02-12T21:14:31.898Z,100.00
2023-02-12T21:17:34.894Z,100.00
2023-02-12T21:20:37.074Z,100.00
2023-02-12T21:23:40.206Z,100.00
2023-02-12T21:26:42.863Z,97.18
2023-02-12T21:29:45.514Z,96.85
2023-02-12T21:32:47.801Z,94.05
2023-02-12T21:35:50.457Z,93.76
2023-02-12T21:38:53.540Z,94.34
2023-02-12T21:41:59.974Z,95.16
2023-02-12T21:45:02.257Z,96.57
2023-02-12T21:48:05.031Z,99.60
2023-02-12T21:51:15.663Z,99.31
2023-02-12T21:54:18.933Z,98.92
2023-02-12T21:57:21.862Z,98.26
2023-02-12T22:00:24.595Z,98.64
2023-02-12T22:03:27.536Z,99.08
2023-02-12T22:06:30.261Z,98.99
2023-02-12T22:09:32.945Z,100.00
2023-02-12T22:12:36.019Z,100.00
2023-02-12T22:15:38.579Z,100.00
2023-02-12T22:18:41.735Z,100.00
2023-02-12T22:21:44.551Z,100.00
2023-02-12T22:24:46.873Z,100.00
2023-02-12T22:27:49.407Z,100.00
2023-02-12T22:30:51.661Z,100.00
2023-02-12T22:33:56.523Z,98.92
2023-02-12T22:36:58.697Z,100.00
2023-02-12T22:40:01.218Z,99.47
2023-02-12T22:43:03.396Z,99.20
2023-02-12T22:46:07.894Z,100.00
2023-02-12T22:49:10.520Z,99.88
2023-02-12T22:52:13.026Z,99.91
2023-02-12T22:55:15.389Z,99.40
2023-02-12T22:58:18.301Z,100.00
2023-02-12T23:01:21.139Z,100.00
2023-02-12T23:04:23.835Z,100.00
2023-02-12T23:07:26.336Z,100.00
2023-02-12T23:10:28.929Z,100.00
2023-02-12T23:13:31.268Z,99.31
2023-02-12T23:16:33.837Z,99.00
2023-02-12T23:19:36.059Z,99.47
2023-02-12T23:22:38.627Z,97.47
2023-02-12T23:25:41.657Z,97.51
2023-02-12T23:28:44.212Z,97.11
2023-02-12T23:31:47.010Z,98.43
2023-02-12T23:34:49.634Z,97.80
2023-02-12T23:37:52.107Z,98.14
2023-02-12T23:40:54.809Z,98.97
2023-02-12T23:43:57.241Z,98.80
2023-02-12T23:47:01.805Z,99.37
2023-02-12T23:50:04.733Z,95.82
2023-02-12T23:53:07.427Z,94.37
2023-02-12T23:56:09.700Z,93.81
2023-02-12T23:59:12.243Z,95.78
